Time;durP1;ratioP1;P1;durP2;ratioP2;P2;SDS_P1;SDS_P2;PMS_P1;PMS_P2;Temp;Humidity;BMP_temperature;BMP_pressure;BME280_temperature;BME280_humidity;BME280_pressure;Samples;Min_cycle;Max_cycle;Signal;HPM_P1;HPM_P2
2024/02/24 00:00:48;;;;;;;0.40;0.40;;;6.30;99.90;;;;;;4945128;28;20052;-60
2024/02/24 00:03:15;;;;;;;1.05;0.43;;;6.30;99.90;;;;;;4930453;29;20102;-61
2024/02/24 00:05:44;;;;;;;0.63;0.57;;;6.30;99.90;;;;;;4950370;29;20455;-61
2024/02/24 00:08:11;;;;;;;1.00;0.50;;;6.20;99.90;;;;;;4945546;28;20058;-60
2024/02/24 00:10:38;;;;;;;2.50;1.15;;;6.20;99.90;;;;;;4946029;28;20511;-58
2024/02/24 00:13:07;;;;;;;0.70;0.38;;;6.10;99.90;;;;;;4942925;28;20054;-57
2024/02/24 00:15:34;;;;;;;0.52;0.45;;;6.00;99.90;;;;;;4944225;28;20184;-59
2024/02/24 00:18:02;;;;;;;1.08;0.50;;;5.90;99.90;;;;;;4944971;28;20058;-58
2024/02/24 00:20:29;;;;;;;1.08;0.68;;;5.90;99.90;;;;;;4944664;28;20047;-59
2024/02/24 00:22:55;;;;;;;0.52;0.52;;;5.90;99.90;;;;;;4945024;28;20043;-61
2024/02/24 00:25:22;;;;;;;1.50;0.75;;;5.90;99.90;;;;;;4945009;28;20106;-58
2024/02/24 00:27:49;;;;;;;1.77;0.50;;;5.90;99.90;;;;;;4944197;28;20054;-59
2024/02/24 00:30:16;;;;;;;0.57;0.57;;;5.90;99.90;;;;;;4944369;28;20114;-59
2024/02/24 00:32:42;;;;;;;0.60;0.50;;;6.00;99.90;;;;;;4944995;28;20059;-58
2024/02/24 00:35:09;;;;;;;2.47;0.50;;;6.00;99.90;;;;;;4945370;28;20666;-57
2024/02/24 00:37:36;;;;;;;0.57;0.57;;;6.00;99.90;;;;;;4952522;28;20503;-61
2024/02/24 00:40:03;;;;;;;1.98;0.65;;;6.00;99.90;;;;;;4944501;28;20093;-60
2024/02/24 00:42:30;;;;;;;0.60;0.60;;;6.00;99.90;;;;;;4944694;28;20571;-61
2024/02/24 00:44:57;;;;;;;3.03;0.65;;;5.90;99.90;;;;;;4944358;29;20059;-58
2024/02/24 00:47:23;;;;;;;1.08;0.82;;;5.90;99.90;;;;;;4944137;28;20145;-60
2024/02/24 00:49:50;;;;;;;0.40;0.40;;;5.90;99.90;;;;;;4944140;28;20051;-57
2024/02/24 00:52:17;;;;;;;1.63;0.50;;;5.90;99.90;;;;;;4946941;28;20086;-59
2024/02/24 00:54:43;;;;;;;3.35;0.50;;;5.90;99.90;;;;;;4948829;28;20106;-60
2024/02/24 00:57:10;;;;;;;1.17;0.80;;;5.90;99.90;;;;;;4949629;29;20044;-57
2024/02/24 00:59:37;;;;;;;0.40;0.40;;;6.00;99.90;;;;;;4949848;29;20380;-60
2024/02/24 01:02:04;;;;;;;0.60;0.55;;;6.00;99.90;;;;;;4951079;28;20050;-60
2024/02/24 01:04:30;;;;;;;1.17;0.60;;;5.90;99.90;;;;;;4952901;28;20050;-58
2024/02/24 01:06:57;;;;;;;1.17;0.70;;;5.90;99.90;;;;;;4948644;28;20483;-58
2024/02/24 01:09:25;;;;;;;0.65;0.60;;;6.00;99.90;;;;;;4953964;28;20093;-59
2024/02/24 01:11:51;;;;;;;0.50;0.50;;;6.00;99.90;;;;;;4954772;28;20555;-58
2024/02/24 01:14:18;;;;;;;1.15;0.60;;;6.00;99.90;;;;;;4949300;29;20130;-56
2024/02/24 01:16:45;;;;;;;0.45;0.40;;;6.00;99.90;;;;;;4946889;29;20090;-59
2024/02/24 01:19:12;;;;;;;0.85;0.50;;;6.00;99.90;;;;;;4945272;28;20055;-60
2024/02/24 01:21:43;;;;;;;3.33;0.55;;;6.00;99.90;;;;;;4944030;28;20047;-59
2024/02/24 01:24:09;;;;;;;;;;;6.00;99.90;;;;;;4944001;28;20085;-58
2024/02/24 01:26:36;;;;;;;1.35;0.65;;;6.00;99.90;;;;;;4950884;28;19993;-58
2024/02/24 01:29:03;;;;;;;1.60;0.80;;;6.00;99.90;;;;;;4944005;28;20095;-59
2024/02/24 01:31:30;;;;;;;0.75;0.70;;;6.00;99.90;;;;;;4943712;28;20050;-60
2024/02/24 01:33:57;;;;;;;0.55;0.50;;;6.10;99.90;;;;;;4943745;28;20059;-57
2024/02/24 01:36:24;;;;;;;0.50;0.50;;;6.10;99.90;;;;;;4944030;28;20148;-60
2024/02/24 01:38:53;;;;;;;0.60;0.60;;;6.10;99.90;;;;;;4942746;28;20137;-59
2024/02/24 01:41:20;;;;;;;0.70;0.60;;;6.20;99.90;;;;;;4943751;28;20133;-60
2024/02/24 01:43:47;;;;;;;1.35;0.52;;;6.20;99.90;;;;;;4946017;28;20062;-60
2024/02/24 01:46:15;;;;;;;1.25;0.70;;;6.10;99.90;;;;;;4947388;28;20107;-59
2024/02/24 01:48:42;;;;;;;0.63;0.60;;;6.20;99.90;;;;;;4948705;28;20192;-60
2024/02/24 01:51:10;;;;;;;0.80;0.43;;;6.20;99.90;;;;;;4947717;28;20106;-59
2024/02/24 01:53:37;;;;;;;0.93;0.43;;;6.20;99.90;;;;;;4947608;28;20174;-58
2024/02/24 01:56:08;;;;;;;1.30;0.85;;;6.20;99.90;;;;;;4947982;28;20051;-58
2024/02/24 01:58:36;;;;;;;1.08;0.70;;;6.10;99.90;;;;;;4946679;28;20594;-57
2024/02/24 02:01:05;;;;;;;1.75;0.70;;;6.00;99.90;;;;;;4946863;28;20061;-58
2024/02/24 02:03:33;;;;;;;0.65;0.60;;;6.00;99.90;;;;;;4946778;28;20047;-59
2024/02/24 02:06:01;;;;;;;0.82;0.60;;;6.00;99.90;;;;;;4947518;29;20139;-58
2024/02/24 02:08:28;;;;;;;1.20;0.50;;;5.90;99.90;;;;;;4947619;28;20103;-59
2024/02/24 02:10:55;;;;;;;1.90;0.85;;;5.80;99.90;;;;;;4946952;28;20059;-58
2024/02/24 02:13:23;;;;;;;2.63;1.10;;;5.80;99.90;;;;;;4948011;28;20146;-58
2024/02/24 02:15:51;;;;;;;2.38;0.95;;;5.80;99.90;;;;;;4946259;28;20043;-59
2024/02/24 02:18:19;;;;;;;1.13;0.90;;;5.80;99.90;;;;;;4945369;28;20050;-58
2024/02/24 02:20:49;;;;;;;0.90;0.68;;;5.80;99.90;;;;;;4947899;28;20147;-60
2024/02/24 02:23:16;;;;;;;1.48;0.80;;;5.80;99.90;;;;;;4950075;28;20047;-59
2024/02/24 02:25:43;;;;;;;0.98;0.60;;;5.60;99.90;;;;;;4946048;28;20559;-59
2024/02/24 02:28:10;;;;;;;1.08;0.75;;;5.60;99.90;;;;;;4945884;28;20051;-60
2024/02/24 02:30:37;;;;;;;1.48;0.82;;;5.50;99.90;;;;;;4948429;28;20800;-57
2024/02/24 02:33:06;;;;;;;0.80;0.50;;;5.50;99.90;;;;;;4945684;28;20614;-60
2024/02/24 02:35:33;;;;;;;1.33;0.52;;;5.50;99.90;;;;;;4946796;28;20047;-60
2024/02/24 02:38:00;;;;;;;0.55;0.55;;;5.60;99.90;;;;;;4946222;28;20051;-58
2024/02/24 02:40:27;;;;;;;0.90;0.68;;;5.50;99.90;;;;;;4946961;28;20122;-58
2024/02/24 02:42:54;;;;;;;0.75;0.68;;;5.50;99.90;;;;;;4947089;28;20134;-60
2024/02/24 02:45:21;;;;;;;0.75;0.70;;;5.60;99.90;;;;;;4946235;28;20047;-58
2024/02/24 02:47:47;;;;;;;0.80;0.60;;;5.50;99.90;;;;;;4934312;29;20063;-60
2024/02/24 02:50:14;;;;;;;0.90;0.50;;;5.50;99.90;;;;;;4951315;28;20500;-59
2024/02/24 02:52:41;;;;;;;0.70;0.60;;;5.50;99.90;;;;;;4951439;28;20055;-59
2024/02/24 02:55:08;;;;;;;0.98;0.50;;;5.60;99.90;;;;;;4949908;28;20051;-59
2024/02/24 02:57:35;;;;;;;1.50;0.60;;;5.60;99.90;;;;;;4951976;29;20055;-59
2024/02/24 03:00:03;;;;;;;0.68;0.50;;;5.70;99.90;;;;;;4951010;28;20539;-60
2024/02/24 03:02:30;;;;;;;0.70;0.70;;;5.70;99.90;;;;;;4951644;28;20118;-59
2024/02/24 03:04:57;;;;;;;0.47;0.47;;;5.80;99.90;;;;;;4951258;28;20135;-59
2024/02/24 03:07:24;;;;;;;0.63;0.50;;;5.80;99.90;;;;;;4951802;28;20043;-60
2024/02/24 03:09:50;;;;;;;1.02;0.60;;;5.80;99.90;;;;;;4954743;28;20500;-56
2024/02/24 03:12:17;;;;;;;2.55;0.63;;;5.80;99.90;;;;;;4951295;28;20542;-58
2024/02/24 03:14:44;;;;;;;0.65;0.57;;;5.80;99.90;;;;;;4951193;28;20082;-58
2024/02/24 03:17:11;;;;;;;3.22;0.60;;;5.90;99.90;;;;;;4951697;28;20428;-58
2024/02/24 03:19:39;;;;;;;0.52;0.52;;;5.80;99.90;;;;;;4946372;28;20043;-59
2024/02/24 03:22:06;;;;;;;0.50;0.50;;;5.90;99.90;;;;;;4947556;28;20043;-60
2024/02/24 03:24:33;;;;;;;1.65;0.55;;;5.90;99.90;;;;;;4945959;28;20464;-57
2024/02/24 03:27:00;;;;;;;1.67;0.50;;;6.00;99.90;;;;;;4946629;28;20503;-61
2024/02/24 03:29:27;;;;;;;0.50;0.50;;;6.00;99.90;;;;;;4945152;29;20082;-59
2024/02/24 03:31:53;;;;;;;0.75;0.55;;;6.10;99.90;;;;;;4944849;28;20083;-60
2024/02/24 03:34:20;;;;;;;0.45;0.45;;;6.10;99.90;;;;;;4945824;28;20102;-60
2024/02/24 03:36:47;;;;;;;1.92;0.70;;;6.20;99.90;;;;;;4944791;28;20058;-59
2024/02/24 03:39:14;;;;;;;2.72;0.60;;;6.30;99.90;;;;;;4946256;28;21036;-58
2024/02/24 03:41:40;;;;;;;2.72;0.60;;;6.30;99.90;;;;;;4944388;28;20126;-58
2024/02/24 03:44:07;;;;;;;0.43;0.43;;;6.40;99.90;;;;;;4944224;28;20075;-59
2024/02/24 03:46:34;;;;;;;0.50;0.50;;;6.40;99.90;;;;;;4946190;28;20055;-58
2024/02/24 03:49:01;;;;;;;0.93;0.57;;;6.50;99.90;;;;;;4943445;28;20055;-59
2024/02/24 03:51:28;;;;;;;0.98;0.90;;;6.50;99.90;;;;;;4945100;28;20652;-57
2024/02/24 03:53:55;;;;;;;0.50;0.50;;;6.50;99.90;;;;;;4947307;28;20090;-58
2024/02/24 03:56:21;;;;;;;0.60;0.57;;;6.50;99.90;;;;;;4945566;28;20055;-57
2024/02/24 03:58:48;;;;;;;2.47;0.70;;;6.50;99.90;;;;;;4944851;28;20074;-59
2024/02/24 04:01:15;;;;;;;1.98;0.60;;;6.50;99.90;;;;;;4945017;28;20074;-59
2024/02/24 04:03:42;;;;;;;0.60;0.60;;;6.50;99.90;;;;;;4944541;28;20043;-57
2024/02/24 04:06:09;;;;;;;1.02;0.65;;;6.50;99.90;;;;;;4944813;28;20455;-58
2024/02/24 04:08:36;;;;;;;0.95;0.60;;;6.40;99.90;;;;;;4946558;28;20047;-58
2024/02/24 04:11:03;;;;;;;0.57;0.50;;;6.30;99.90;;;;;;4945323;28;20051;-58
2024/02/24 04:13:30;;;;;;;1.25;0.47;;;6.20;99.90;;;;;;4944156;28;20527;-60
2024/02/24 04:15:57;;;;;;;0.70;0.50;;;6.20;99.90;;;;;;4944537;28;20118;-59
2024/02/24 04:18:23;;;;;;;0.57;0.50;;;6.10;99.90;;;;;;4943894;28;20058;-60
2024/02/24 04:20:50;;;;;;;1.13;0.90;;;6.10;99.90;;;;;;4944303;28;20049;-57
2024/02/24 04:23:17;;;;;;;0.70;0.50;;;6.10;99.90;;;;;;4944395;28;20101;-60
2024/02/24 04:25:44;;;;;;;0.70;0.60;;;6.10;99.90;;;;;;4945548;28;20499;-56
2024/02/24 04:28:12;;;;;;;1.10;0.75;;;6.10;99.90;;;;;;4944014;28;20047;-58
2024/02/24 04:30:39;;;;;;;0.70;0.70;;;6.10;99.90;;;;;;4944221;28;20054;-57
2024/02/24 04:33:06;;;;;;;1.02;0.75;;;6.10;99.90;;;;;;4943887;28;20109;-59
2024/02/24 04:35:33;;;;;;;1.05;0.80;;;6.10;99.90;;;;;;4944305;28;20459;-56
2024/02/24 04:38:05;;;;;;;1.15;0.70;;;6.20;99.90;;;;;;4943375;28;20051;-57
2024/02/24 04:40:35;;;;;;;0.50;0.50;;;6.10;99.90;;;;;;4944414;28;20047;-55
2024/02/24 04:43:02;;;;;;;0.82;0.60;;;6.20;99.90;;;;;;4943924;28;20129;-59
2024/02/24 04:45:29;;;;;;;1.88;0.70;;;6.20;99.90;;;;;;4944685;28;21907;-59
2024/02/24 04:47:56;;;;;;;0.77;0.77;;;6.10;99.90;;;;;;4944640;28;20047;-57
2024/02/24 04:50:23;;;;;;;1.15;0.65;;;6.10;99.90;;;;;;4943623;28;20065;-59
2024/02/24 04:52:49;;;;;;;0.60;0.60;;;6.10;99.90;;;;;;4946624;28;20051;-58
2024/02/24 04:55:16;;;;;;;0.70;0.70;;;6.10;99.90;;;;;;4946783;28;20143;-59
2024/02/24 04:57:43;;;;;;;1.05;0.60;;;6.10;99.90;;;;;;4951475;28;20818;-57
2024/02/24 05:00:10;;;;;;;0.93;0.80;;;6.00;99.90;;;;;;4950351;28;20141;-58
2024/02/24 05:02:37;;;;;;;0.68;0.60;;;6.00;99.90;;;;;;4951485;28;20051;-57
2024/02/24 05:05:04;;;;;;;1.40;0.63;;;6.00;99.90;;;;;;4949000;28;20055;-58
2024/02/24 05:07:31;;;;;;;0.80;0.70;;;5.90;99.90;;;;;;4950018;28;20516;-55
2024/02/24 05:09:58;;;;;;;1.60;0.70;;;5.80;99.90;;;;;;4950668;28;20091;-58
2024/02/24 05:12:24;;;;;;;0.70;0.60;;;5.80;99.90;;;;;;4948065;29;20102;-58
2024/02/24 05:14:51;;;;;;;1.35;0.68;;;5.90;99.90;;;;;;4950775;28;20087;-58
2024/02/24 05:17:18;;;;;;;1.23;0.70;;;5.90;99.90;;;;;;4945522;28;20086;-58
2024/02/24 05:19:45;;;;;;;0.68;0.57;;;6.10;99.90;;;;;;4943245;28;20436;-59
2024/02/24 05:22:12;;;;;;;0.60;0.60;;;6.10;99.90;;;;;;4943943;28;20047;-59
2024/02/24 05:24:38;;;;;;;1.73;0.65;;;6.20;99.90;;;;;;4943231;28;20437;-56
2024/02/24 05:27:05;;;;;;;0.82;0.70;;;6.30;99.90;;;;;;4944232;28;20134;-55
2024/02/24 05:29:32;;;;;;;1.63;0.88;;;6.30;99.90;;;;;;4943628;28;20047;-58
2024/02/24 05:31:59;;;;;;;1.98;0.80;;;6.40;99.90;;;;;;4943301;28;20598;-60
2024/02/24 05:34:27;;;;;;;0.80;0.80;;;6.40;99.90;;;;;;4944231;28;20051;-56
2024/02/24 05:36:54;;;;;;;0.65;0.57;;;6.30;99.90;;;;;;4946216;28;20051;-57
2024/02/24 05:39:21;;;;;;;0.63;0.47;;;6.30;99.90;;;;;;4944494;28;20130;-59
2024/02/24 05:41:49;;;;;;;0.50;0.50;;;6.30;99.90;;;;;;4945582;28;20161;-59
2024/02/24 05:44:17;;;;;;;0.63;0.55;;;6.20;99.90;;;;;;4942446;29;20683;-58
2024/02/24 05:46:44;;;;;;;1.33;0.70;;;6.20;99.90;;;;;;4943061;28;20246;-59
2024/02/24 05:49:10;;;;;;;0.57;0.57;;;6.10;99.90;;;;;;4944616;28;20130;-59
2024/02/24 05:51:39;;;;;;;1.85;0.52;;;6.10;99.90;;;;;;4947232;28;20122;-59
2024/02/24 05:54:06;;;;;;;0.65;0.65;;;6.10;99.90;;;;;;4949411;28;20109;-58
2024/02/24 05:56:33;;;;;;;0.63;0.57;;;6.10;99.90;;;;;;4950027;28;20050;-58
2024/02/24 05:59:00;;;;;;;0.50;0.40;;;6.10;99.90;;;;;;4947872;28;20516;-59
2024/02/24 06:01:26;;;;;;;0.50;0.50;;;6.10;99.90;;;;;;4944980;28;20047;-58
2024/02/24 06:03:53;;;;;;;0.40;0.40;;;6.10;99.90;;;;;;4945344;28;20382;-60
2024/02/24 06:06:20;;;;;;;1.65;1.33;;;6.00;99.90;;;;;;4948908;28;20138;-60
2024/02/24 06:08:47;;;;;;;2.15;1.80;;;6.00;99.90;;;;;;4946456;28;20158;-59
2024/02/24 06:11:14;;;;;;;0.90;0.80;;;6.00;99.90;;;;;;4950294;28;20091;-60
2024/02/24 06:13:41;;;;;;;2.85;2.00;;;5.90;99.90;;;;;;4950500;28;20051;-60
2024/02/24 06:16:08;;;;;;;1.80;0.55;;;5.90;99.90;;;;;;4944552;28;20642;-59
2024/02/24 06:18:35;;;;;;;0.60;0.60;;;5.80;99.90;;;;;;4948382;28;20102;-60
2024/02/24 06:21:03;;;;;;;1.08;0.63;;;5.80;99.90;;;;;;4951662;28;20047;-57
2024/02/24 06:23:30;;;;;;;0.65;0.47;;;5.80;99.90;;;;;;4947497;28;20044;-59
2024/02/24 06:25:57;;;;;;;0.52;0.52;;;5.70;99.90;;;;;;4931433;28;20106;-59
2024/02/24 06:28:23;;;;;;;0.85;0.40;;;5.70;99.90;;;;;;4948019;28;20126;-60
2024/02/24 06:30:50;;;;;;;0.82;0.45;;;5.60;99.90;;;;;;4952574;28;20087;-60
2024/02/24 06:33:17;;;;;;;0.40;0.40;;;5.60;99.90;;;;;;4954464;28;20043;-60
2024/02/24 06:35:44;;;;;;;2.10;0.55;;;5.60;99.90;;;;;;4956113;28;20117;-60
2024/02/24 06:38:11;;;;;;;2.17;0.55;;;5.60;99.90;;;;;;4954590;28;20126;-60
2024/02/24 06:40:37;;;;;;;0.65;0.50;;;5.60;99.90;;;;;;4954205;28;20043;-60
2024/02/24 06:43:12;;;;;;;0.80;0.60;;;5.60;99.90;;;;;;4953708;28;20054;-59
2024/02/24 06:45:39;;;;;;;2.55;0.60;;;5.50;99.90;;;;;;4955923;28;20053;-60
2024/02/24 06:48:06;;;;;;;0.55;0.55;;;5.50;99.90;;;;;;4951228;28;20047;-60
2024/02/24 06:50:33;;;;;;;0.90;0.47;;;5.40;99.90;;;;;;4957533;28;20110;-60
2024/02/24 06:53:00;;;;;;;0.50;0.43;;;5.50;99.90;;;;;;4957788;28;20082;-60
2024/02/24 06:55:27;;;;;;;0.55;0.50;;;5.40;99.90;;;;;;4957770;28;20488;-60
2024/02/24 06:57:54;;;;;;;1.98;0.60;;;5.40;99.90;;;;;;4960036;28;20666;-57
2024/02/24 07:00:23;;;;;;;0.70;0.50;;;5.40;99.90;;;;;;4958471;28;20051;-61
2024/02/24 07:02:50;;;;;;;1.08;0.50;;;5.40;99.90;;;;;;4959730;28;20051;-61
2024/02/24 07:05:17;;;;;;;2.75;0.70;;;5.40;99.90;;;;;;4957501;28;20056;-60
2024/02/24 07:07:44;;;;;;;0.82;0.50;;;5.40;99.90;;;;;;4960742;28;20055;-60
2024/02/24 07:10:11;;;;;;;0.90;0.57;;;5.60;99.90;;;;;;4960769;28;20059;-60
2024/02/24 07:12:38;;;;;;;1.05;0.50;;;5.60;99.90;;;;;;4960216;28;20054;-58
2024/02/24 07:15:10;;;;;;;0.57;0.40;;;5.70;99.90;;;;;;4957708;28;20051;-60
2024/02/24 07:17:36;;;;;;;0.60;0.50;;;5.70;99.90;;;;;;4955298;28;20048;-60
2024/02/24 07:20:04;;;;;;;2.58;0.52;;;5.60;99.90;;;;;;4956544;28;20039;-59
2024/02/24 07:22:30;;;;;;;0.75;0.70;;;5.50;99.90;;;;;;4959621;28;20051;-58
2024/02/24 07:24:57;;;;;;;0.57;0.50;;;5.50;99.90;;;;;;4954606;28;20110;-60
2024/02/24 07:27:24;;;;;;;1.30;0.60;;;5.40;99.90;;;;;;4950830;28;20062;-60
2024/02/24 07:29:51;;;;;;;0.70;0.50;;;5.40;99.90;;;;;;4949375;28;20051;-60
2024/02/24 07:32:17;;;;;;;1.52;0.60;;;5.30;99.90;;;;;;4950761;28;20158;-60
2024/02/24 07:34:44;;;;;;;1.13;0.50;;;5.10;99.90;;;;;;4957570;28;20055;-60
2024/02/24 07:37:11;;;;;;;1.42;0.60;;;5.10;99.90;;;;;;4955711;28;20180;-59
2024/02/24 07:39:38;;;;;;;2.15;0.50;;;5.00;99.90;;;;;;4946802;28;20094;-60
2024/02/24 07:42:05;;;;;;;0.73;0.60;;;4.90;99.90;;;;;;4945844;28;20050;-60
2024/02/24 07:44:31;;;;;;;0.50;0.50;;;5.00;99.90;;;;;;4947188;28;21509;-59
2024/02/24 07:46:58;;;;;;;2.58;0.63;;;5.10;99.90;;;;;;4948530;28;20059;-59
2024/02/24 07:49:25;;;;;;;1.98;0.47;;;5.30;99.90;;;;;;4945926;28;20079;-60
2024/02/24 07:51:53;;;;;;;0.95;0.60;;;5.40;99.90;;;;;;4945935;28;20054;-59
2024/02/24 07:54:20;;;;;;;1.15;0.50;;;5.40;99.90;;;;;;4949361;28;20066;-58
2024/02/24 07:56:47;;;;;;;0.85;0.70;;;5.40;99.90;;;;;;4952292;28;20051;-59
2024/02/24 07:59:14;;;;;;;1.25;0.50;;;5.40;99.90;;;;;;4948514;28;20039;-59
2024/02/24 08:01:41;;;;;;;1.83;1.20;;;5.40;99.90;;;;;;4950066;28;20043;-60
2024/02/24 08:04:08;;;;;;;1.60;0.50;;;5.30;99.90;;;;;;4950854;28;20117;-60
2024/02/24 08:06:35;;;;;;;0.77;0.60;;;5.30;99.90;;;;;;4951218;28;20054;-59
2024/02/24 08:09:02;;;;;;;2.15;0.70;;;5.20;99.90;;;;;;4948025;28;20043;-59
2024/02/24 08:11:34;;;;;;;7.20;0.77;;;5.30;99.90;;;;;;4945347;28;20051;-59
2024/02/24 08:14:03;;;;;;;1.98;0.60;;;5.60;99.90;;;;;;4946071;28;20133;-60
2024/02/24 08:16:29;;;;;;;0.68;0.50;;;5.80;99.90;;;;;;4944690;28;20051;-58
2024/02/24 08:18:56;;;;;;;3.67;0.70;;;5.90;99.90;;;;;;4951186;28;20055;-58
2024/02/24 08:21:23;;;;;;;3.38;0.60;;;6.20;99.90;;;;;;4948213;28;20099;-60
2024/02/24 08:23:50;;;;;;;1.05;0.70;;;6.40;99.90;;;;;;4951082;28;20051;-60
2024/02/24 08:26:17;;;;;;;1.02;0.77;;;6.40;99.90;;;;;;4949150;28;20051;-60
2024/02/24 08:28:43;;;;;;;2.67;0.70;;;6.50;99.90;;;;;;4949350;28;20900;-58
2024/02/24 08:31:10;;;;;;;2.53;0.85;;;6.70;99.90;;;;;;4951063;28;20055;-60
2024/02/24 08:33:41;;;;;;;2.97;0.75;;;6.60;99.90;;;;;;4947921;28;20134;-60
2024/02/24 08:36:08;;;;;;;1.05;0.77;;;6.60;99.90;;;;;;4948788;28;20114;-60
2024/02/24 08:38:35;;;;;;;1.17;0.70;;;6.60;99.90;;;;;;4944390;28;20051;-60
2024/02/24 08:41:05;;;;;;;2.05;0.60;;;6.60;99.90;;;;;;4948268;28;20676;-60
2024/02/24 08:43:32;;;;;;;3.15;0.60;;;6.50;99.90;;;;;;4952463;28;20460;-59
2024/02/24 08:45:59;;;;;;;4.07;1.35;;;6.40;99.90;;;;;;4952141;28;20048;-58
2024/02/24 08:48:26;;;;;;;2.67;0.70;;;6.30;99.90;;;;;;4948941;28;20501;-59
2024/02/24 08:50:53;;;;;;;0.80;0.70;;;6.30;99.90;;;;;;4951145;28;20055;-59
2024/02/24 08:53:20;;;;;;;2.47;0.85;;;6.40;99.90;;;;;;4949473;28;20492;-60
2024/02/24 08:55:47;;;;;;;1.30;0.63;;;6.50;99.90;;;;;;4952327;28;20238;-60
2024/02/24 08:58:14;;;;;;;3.67;0.70;;;6.50;99.90;;;;;;4950788;28;20051;-60
2024/02/24 09:00:41;;;;;;;0.80;0.40;;;6.60;99.90;;;;;;4948321;28;20083;-63
2024/02/24 09:03:07;;;;;;;2.85;0.77;;;6.70;99.90;;;;;;4948971;28;20138;-62
2024/02/24 09:05:35;;;;;;;3.03;1.00;;;6.90;99.90;;;;;;4949378;28;20043;-63
2024/02/24 09:08:01;;;;;;;4.95;0.80;;;7.00;99.90;;;;;;4948771;28;20523;-63
2024/02/24 09:10:28;;;;;;;1.25;0.90;;;7.20;99.90;;;;;;4950090;28;20645;-64
2024/02/24 09:12:55;;;;;;;1.83;0.88;;;7.40;99.90;;;;;;4949327;28;20055;-63
2024/02/24 09:15:22;;;;;;;1.88;0.90;;;7.70;99.90;;;;;;4942958;28;20059;-63
2024/02/24 09:17:48;;;;;;;1.42;1.13;;;7.90;99.90;;;;;;4944158;28;20058;-63
2024/02/24 09:20:15;;;;;;;2.17;0.60;;;8.10;99.90;;;;;;4942599;28;20061;-63
2024/02/24 09:22:42;;;;;;;2.97;0.75;;;8.30;99.90;;;;;;4943092;28;20068;-63
2024/02/24 09:25:15;;;;;;;1.13;0.70;;;8.40;99.90;;;;;;4942514;28;20054;-62
2024/02/24 09:27:43;;;;;;;2.22;0.60;;;8.40;99.90;;;;;;4943218;28;20058;-63
2024/02/24 09:30:10;;;;;;;1.00;0.60;;;8.40;99.90;;;;;;4943201;28;20264;-63
2024/02/24 09:32:38;;;;;;;1.15;0.70;;;8.60;99.90;;;;;;4947063;28;20051;-62
2024/02/24 09:35:07;;;;;;;0.90;0.80;;;8.70;99.90;;;;;;4947832;29;20130;-63
2024/02/24 09:37:35;;;;;;;1.13;0.85;;;8.90;99.90;;;;;;4947885;29;20395;-63
2024/02/24 09:40:05;;;;;;;2.08;0.80;;;9.00;99.90;;;;;;4945535;29;20050;-63
2024/02/24 09:42:33;;;;;;;;;;;8.90;99.90;;;;;;4947543;28;20047;-63
2024/02/24 09:45:04;;;;;;;1.77;0.90;;;9.10;99.90;;;;;;4948551;28;19930;-63
2024/02/24 09:47:31;;;;;;;1.42;0.80;;;9.10;99.90;;;;;;4948936;28;20070;-61
2024/02/24 09:49:59;;;;;;;2.38;1.13;;;8.90;99.90;;;;;;4944766;28;20535;-62
2024/02/24 09:52:28;;;;;;;0.50;0.50;;;8.90;99.90;;;;;;4947628;28;20049;-62
2024/02/24 09:54:54;;;;;;;0.93;0.65;;;8.90;99.90;;;;;;4950193;28;20055;-62
2024/02/24 09:57:26;;;;;;;1.50;0.80;;;8.90;99.90;;;;;;4950755;28;20059;-62
2024/02/24 09:59:54;;;;;;;1.38;0.77;;;8.90;99.90;;;;;;4948495;28;20154;-63
2024/02/24 10:02:21;;;;;;;0.82;0.80;;;9.00;99.90;;;;;;4949797;28;20421;-63
2024/02/24 10:04:50;;;;;;;1.85;1.08;;;9.10;99.90;;;;;;4946696;28;20501;-63
2024/02/24 10:07:17;;;;;;;2.97;1.38;;;9.20;99.90;;;;;;4949060;28;20051;-63
2024/02/24 10:09:44;;;;;;;3.60;1.55;;;9.10;99.90;;;;;;4948187;28;20408;-63
2024/02/24 10:12:11;;;;;;;1.15;0.70;;;9.20;99.90;;;;;;4947925;28;20141;-62
2024/02/24 10:14:37;;;;;;;2.53;1.67;;;9.20;99.90;;;;;;4947667;28;20590;-62
2024/02/24 10:17:04;;;;;;;2.53;1.13;;;9.30;99.90;;;;;;4946704;28;20158;-63
2024/02/24 10:19:32;;;;;;;3.20;1.35;;;9.40;99.90;;;;;;4946480;28;20170;-63
2024/02/24 10:22:01;;;;;;;4.43;1.50;;;9.40;99.90;;;;;;4949836;28;20047;-63
2024/02/24 10:24:28;;;;;;;4.23;1.50;;;9.50;99.90;;;;;;4946877;28;20052;-63
2024/02/24 10:26:57;;;;;;;2.15;0.60;;;9.60;99.90;;;;;;4947656;28;20415;-63
2024/02/24 10:29:29;;;;;;;1.52;0.88;;;9.70;99.90;;;;;;4963675;23;20051;-65
2024/02/24 10:31:59;;;;;;;1.17;0.70;;;9.80;99.90;;;;;;4964833;28;20607;-65
2024/02/24 10:34:27;;;;;;;1.73;0.90;;;9.90;99.90;;;;;;4962793;28;20280;-65
2024/02/24 10:37:00;;;;;;;3.20;0.80;;;9.90;99.90;;;;;;4966167;28;20051;-65
2024/02/24 10:39:28;;;;;;;2.63;0.90;;;9.90;99.90;;;;;;4965160;28;20406;-64
2024/02/24 10:41:56;;;;;;;0.93;0.77;;;9.80;99.90;;;;;;4963736;28;20047;-65
2024/02/24 10:44:23;;;;;;;1.13;0.60;;;9.70;99.90;;;;;;4963089;28;20102;-64
2024/02/24 10:46:50;;;;;;;0.93;0.60;;;9.50;99.90;;;;;;4963984;28;20415;-64
2024/02/24 10:49:17;;;;;;;1.08;0.70;;;9.30;99.90;;;;;;4965673;28;20096;-65
2024/02/24 10:51:49;;;;;;;0.55;0.55;;;9.10;99.90;;;;;;4968214;28;20054;-65
2024/02/24 10:54:21;;;;;;;2.08;0.88;;;9.10;99.90;;;;;;4971229;28;20074;-65
2024/02/24 10:56:56;;;;;;;1.00;0.80;;;9.10;99.90;;;;;;4975586;28;20090;-65
2024/02/24 10:59:28;;;;;;;0.93;0.63;;;8.90;99.90;;;;;;4970070;28;20502;-65
2024/02/24 11:02:00;;;;;;;1.73;0.90;;;8.70;99.90;;;;;;4967845;28;20581;-65
2024/02/24 11:04:27;;;;;;;1.45;0.90;;;8.60;99.90;;;;;;4969546;28;20047;-64
2024/02/24 11:06:55;;;;;;;1.25;0.80;;;8.90;99.90;;;;;;4969600;28;20051;-64
2024/02/24 11:09:30;;;;;;;0.80;0.70;;;9.00;99.90;;;;;;4973834;28;20146;-64
2024/02/24 11:12:10;;;;;;;1.48;0.70;;;9.20;99.90;;;;;;4969983;28;20117;-65
2024/02/24 11:14:38;;;;;;;0.93;0.57;;;9.30;99.90;;;;;;4967148;28;20059;-65
2024/02/24 11:17:05;;;;;;;1.83;0.77;;;9.50;99.90;;;;;;4966484;28;20050;-64
2024/02/24 11:19:46;;;;;;;0.85;0.60;;;9.70;99.90;;;;;;4971874;28;20113;-65
2024/02/24 11:22:27;;;;;;;0.70;0.50;;;9.80;99.90;;;;;;4971126;28;20078;-66
2024/02/24 11:25:01;;;;;;;0.68;0.63;;;10.10;99.90;;;;;;4972414;28;20047;-66
2024/02/24 11:27:30;;;;;;;0.75;0.60;;;10.00;99.90;;;;;;4969007;28;20054;-66
2024/02/24 11:29:57;;;;;;;0.57;0.50;;;10.00;99.90;;;;;;4966040;28;20053;-66
2024/02/24 11:32:25;;;;;;;2.05;0.70;;;10.10;99.90;;;;;;4967316;28;20117;-66
2024/02/24 11:34:55;;;;;;;2.05;0.70;;;9.90;99.90;;;;;;4970044;28;20058;-66
2024/02/24 11:37:22;;;;;;;1.63;0.73;;;10.00;99.90;;;;;;4968127;28;20216;-66
2024/02/24 11:39:50;;;;;;;2.08;0.70;;;10.00;99.90;;;;;;4969417;28;20133;-66
2024/02/24 11:42:17;;;;;;;1.45;0.80;;;9.90;99.90;;;;;;4971455;28;20043;-66
2024/02/24 11:44:45;;;;;;;1.80;1.20;;;9.80;99.90;;;;;;4969320;28;20105;-66
2024/02/24 11:47:17;;;;;;;1.95;1.00;;;9.70;99.90;;;;;;4968344;28;20042;-66
2024/02/24 11:49:48;;;;;;;4.95;0.98;;;9.60;99.90;;;;;;4969287;28;20100;-66
2024/02/24 11:52:16;;;;;;;3.00;1.15;;;9.50;99.90;;;;;;4964707;28;20507;-66
2024/02/24 11:54:44;;;;;;;0.95;0.80;;;9.50;99.90;;;;;;4973857;28;20066;-66
2024/02/24 11:57:12;;;;;;;2.10;0.60;;;9.60;99.90;;;;;;4972366;28;20050;-66
2024/02/24 11:59:40;;;;;;;2.08;0.80;;;9.70;99.90;;;;;;4967802;28;20154;-66
2024/02/24 12:02:06;;;;;;;1.70;0.60;;;9.70;99.90;;;;;;4967783;28;20503;-66
2024/02/24 12:04:33;;;;;;;3.40;0.80;;;9.70;99.90;;;;;;4966005;28;20047;-66
2024/02/24 12:07:01;;;;;;;0.85;0.70;;;9.80;99.90;;;;;;4968861;28;20043;-66
2024/02/24 12:09:29;;;;;;;2.78;0.73;;;9.90;99.90;;;;;;4970926;28;20053;-66
2024/02/24 12:11:56;;;;;;;1.63;0.70;;;10.20;99.90;;;;;;4971711;28;20043;-66
2024/02/24 12:14:27;;;;;;;0.95;0.80;;;10.40;99.90;;;;;;4969311;28;20054;-66
2024/02/24 12:16:57;;;;;;;;;;;10.50;99.90;;;;;;4962792;28;20051;-66
2024/02/24 12:19:27;;;;;;;0.90;0.68;;;10.60;99.90;;;;;;4961868;28;19961;-66
2024/02/24 12:21:55;;;;;;;0.70;0.55;;;10.70;99.90;;;;;;4961211;28;20078;-66
2024/02/24 12:24:28;;;;;;;1.65;0.70;;;10.60;99.90;;;;;;4964323;28;20070;-66
2024/02/24 12:27:00;;;;;;;1.52;1.00;;;10.70;99.90;;;;;;4961331;28;20134;-66
2024/02/24 12:29:29;;;;;;;3.75;1.00;;;10.70;99.90;;;;;;4963658;28;20058;-65
2024/02/24 12:31:56;;;;;;;1.55;1.05;;;10.60;99.90;;;;;;4960731;28;20055;-65
2024/02/24 12:34:24;;;;;;;0.85;0.70;;;10.50;99.90;;;;;;4961523;28;20154;-65
2024/02/24 12:36:56;;;;;;;1.35;0.80;;;10.50;99.90;;;;;;4963404;28;20058;-65
2024/02/24 12:39:24;;;;;;;0.98;0.90;;;10.50;99.90;;;;;;4962542;28;20054;-65
2024/02/24 12:41:54;;;;;;;4.05;1.00;;;10.50;99.90;;;;;;4964409;28;20053;-65
2024/02/24 12:44:21;;;;;;;1.42;0.90;;;10.40;99.90;;;;;;4963852;28;20069;-65
2024/02/24 12:46:48;;;;;;;1.42;0.85;;;10.40;99.90;;;;;;4959055;28;20061;-66
2024/02/24 12:49:15;;;;;;;1.65;0.70;;;10.40;99.90;;;;;;4967899;28;20061;-66
2024/02/24 12:51:50;;;;;;;2.17;0.80;;;10.40;99.90;;;;;;4964649;28;20251;-63
2024/02/24 12:54:17;;;;;;;0.98;0.68;;;10.40;99.90;;;;;;4968848;28;20494;-65
2024/02/24 12:56:44;;;;;;;1.10;0.70;;;10.40;99.90;;;;;;4969725;28;20572;-66
2024/02/24 12:59:12;;;;;;;1.85;0.80;;;10.40;99.90;;;;;;4973018;28;20183;-66